Time;durP1;ratioP1;P1;durP2;ratioP2;P2;SDS_P1;SDS_P2;PMS_P1;PMS_P2;Temp;Humidity;BMP_temperature;BMP_pressure;BME280_temperature;BME280_humidity;BME280_pressure;Samples;Min_cycle;Max_cycle;Signal;HPM_P1;HPM_P2
2022/05/13 00:01:27;;;;;;;2.80;1.77;;;;;;;;;;7329564;19;153569;-19
2022/05/13 00:03:59;;;;;;;3.17;1.60;;;;;;;;;;7328315;19;161931;-19
2022/05/13 00:06:33;;;;;;;2.28;1.38;;;;;;;;;;7330718;19;162771;-19
2022/05/13 00:09:05;;;;;;;2.08;1.48;;;;;;;;;;7329776;19;154272;-19
2022/05/13 00:11:36;;;;;;;1.38;1.20;;;;;;;;;;7329657;19;154399;-19
2022/05/13 00:14:08;;;;;;;3.17;1.60;;;;;;;;;;7334052;19;161851;-19
2022/05/13 00:16:39;;;;;;;1.77;1.43;;;;;;;;;;7329823;19;162629;-19
2022/05/13 00:19:11;;;;;;;1.42;1.33;;;;;;;;;;7329543;19;154151;-21
2022/05/13 00:21:45;;;;;;;1.40;1.30;;;;;;;;;;7329594;19;153524;-19
2022/05/13 00:24:16;;;;;;;2.47;1.40;;;;;;;;;;7328996;19;161829;-19
2022/05/13 00:26:48;;;;;;;1.73;1.50;;;;;;;;;;7327628;19;162417;-19
2022/05/13 00:29:19;;;;;;;2.47;1.23;;;;;;;;;;7329237;19;154290;-19
2022/05/13 00:31:51;;;;;;;1.75;1.25;;;;;;;;;;7326432;19;153664;-18
2022/05/13 00:34:22;;;;;;;2.13;1.27;;;;;;;;;;7330320;19;161981;-21
2022/05/13 00:36:56;;;;;;;3.03;1.30;;;;;;;;;;7327695;19;162400;-18
2022/05/13 00:39:28;;;;;;;1.70;1.50;;;;;;;;;;7330937;19;154223;-19
2022/05/13 00:42:08;;;;;;;3.40;1.75;;;;;;;;;;7329372;19;153996;-24
2022/05/13 00:44:39;;;;;;;2.78;1.50;;;;;;;;;;7326528;19;161947;-19
2022/05/13 00:47:10;;;;;;;1.67;1.20;;;;;;;;;;7328358;19;162494;-19
2022/05/13 00:49:42;;;;;;;3.58;1.45;;;;;;;;;;7328282;19;154213;-19
2022/05/13 00:52:17;;;;;;;3.90;1.23;;;;;;;;;;7327102;19;153527;-19
2022/05/13 00:54:49;;;;;;;3.95;1.65;;;;;;;;;;7328083;19;161863;-18
2022/05/13 00:57:21;;;;;;;2.78;1.27;;;;;;;;;;7329456;19;162531;-18
2022/05/13 00:59:56;;;;;;;2.63;1.10;;;;;;;;;;7328796;19;154039;-19
2022/05/13 01:02:30;;;;;;;1.75;1.05;;;;;;;;;;7329855;19;153548;-20
2022/05/13 01:05:05;;;;;;;4.53;1.20;;;;;;;;;;7327922;19;161789;-19
2022/05/13 01:07:39;;;;;;;2.60;1.52;;;;;;;;;;7328971;19;162359;-19
2022/05/13 01:10:16;;;;;;;5.07;1.42;;;;;;;;;;7329103;19;154081;-17
2022/05/13 01:12:51;;;;;;;3.03;1.50;;;;;;;;;;7329090;19;153493;-17
2022/05/13 01:15:26;;;;;;;2.95;1.50;;;;;;;;;;7328840;19;161749;-19
2022/05/13 01:18:07;;;;;;;2.90;1.45;;;;;;;;;;7327387;19;162756;-19
2022/05/13 01:20:46;;;;;;;4.03;1.33;;;;;;;;;;7328887;19;154144;-19
2022/05/13 01:23:23;;;;;;;2.67;1.70;;;;;;;;;;7328809;19;153689;-19
2022/05/13 01:25:56;;;;;;;2.25;1.33;;;;;;;;;;7327257;19;162566;-19
2022/05/13 01:28:30;;;;;;;1.55;1.30;;;;;;;;;;7328329;19;162379;-19
2022/05/13 01:31:04;;;;;;;2.17;1.27;;;;;;;;;;7327628;19;154040;-17
2022/05/13 01:33:37;;;;;;;1.50;1.30;;;;;;;;;;7328521;19;153497;-19
2022/05/13 01:36:12;;;;;;;1.58;1.40;;;;;;;;;;7327037;19;162105;-19
2022/05/13 01:38:46;;;;;;;2.58;1.50;;;;;;;;;;7328075;19;162438;-19
2022/05/13 01:41:18;;;;;;;2.35;1.55;;;;;;;;;;7328473;19;154271;-20
2022/05/13 01:43:52;;;;;;;2.13;1.07;;;;;;;;;;7327217;19;153769;-20
2022/05/13 01:46:27;;;;;;;1.27;1.17;;;;;;;;;;7326259;19;161853;-19
2022/05/13 01:48:58;;;;;;;2.15;1.15;;;;;;;;;;7331960;19;162412;-19
2022/05/13 01:51:30;;;;;;;2.20;1.30;;;;;;;;;;7326925;19;154210;-19
2022/05/13 01:54:04;;;;;;;2.22;1.10;;;;;;;;;;7327558;19;153615;-19
2022/05/13 01:56:35;;;;;;;2.28;1.40;;;;;;;;;;7327572;19;161864;-19
2022/05/13 01:59:07;;;;;;;2.65;1.40;;;;;;;;;;7329292;19;162356;-19
2022/05/13 02:01:38;;;;;;;0.85;0.85;;;;;;;;;;7334639;19;154184;-19
2022/05/13 02:04:09;;;;;;;1.23;0.95;;;;;;;;;;7334491;19;153595;-19
2022/05/13 02:06:40;;;;;;;1.92;1.20;;;;;;;;;;7334104;19;162005;-19
2022/05/13 02:09:14;;;;;;;2.22;1.20;;;;;;;;;;7337095;19;162287;-19
2022/05/13 02:11:46;;;;;;;1.65;1.10;;;;;;;;;;7333658;19;154329;-19
2022/05/13 02:14:18;;;;;;;2.83;1.20;;;;;;;;;;7334419;19;153581;-18
2022/05/13 02:16:49;;;;;;;1.20;1.10;;;;;;;;;;7333986;19;161973;-17
2022/05/13 02:19:20;;;;;;;1.55;1.15;;;;;;;;;;7333911;19;162392;-18
2022/05/13 02:21:52;;;;;;;0.98;0.95;;;;;;;;;;7332912;19;154222;-18
2022/05/13 02:24:25;;;;;;;1.02;0.90;;;;;;;;;;7334210;19;153742;-17
2022/05/13 02:26:57;;;;;;;1.92;1.23;;;;;;;;;;7333845;19;162140;-17
2022/05/13 02:29:28;;;;;;;1.20;1.10;;;;;;;;;;7333398;19;162117;-18
2022/05/13 02:31:59;;;;;;;1.95;1.20;;;;;;;;;;7331783;19;154113;-19
2022/05/13 02:34:30;;;;;;;1.15;1.05;;;;;;;;;;7333772;19;154833;-18
2022/05/13 02:37:02;;;;;;;1.33;1.10;;;;;;;;;;7333376;19;162041;-18
2022/05/13 02:39:36;;;;;;;1.58;1.20;;;;;;;;;;7333331;19;162501;-18
2022/05/13 02:42:08;;;;;;;2.30;1.35;;;;;;;;;;7333661;19;154183;-18
2022/05/13 02:44:39;;;;;;;1.00;0.90;;;;;;;;;;7332278;19;153594;-18
2022/05/13 02:47:10;;;;;;;1.45;1.35;;;;;;;;;;7332097;19;161821;-18
2022/05/13 02:49:41;;;;;;;4.60;1.27;;;;;;;;;;7333053;19;162456;-18
2022/05/13 02:52:13;;;;;;;1.55;1.23;;;;;;;;;;7332349;19;154075;-18
2022/05/13 02:54:47;;;;;;;1.35;0.90;;;;;;;;;;7333319;19;153792;-18
2022/05/13 02:57:18;;;;;;;2.05;0.95;;;;;;;;;;7332822;19;162311;-17
2022/05/13 02:59:49;;;;;;;2.03;1.00;;;;;;;;;;7332451;19;162771;-18
2022/05/13 03:02:21;;;;;;;2.13;1.30;;;;;;;;;;7333026;19;154257;-18
2022/05/13 03:04:52;;;;;;;1.08;1.08;;;;;;;;;;7332515;19;153617;-18
2022/05/13 03:07:24;;;;;;;1.45;1.30;;;;;;;;;;7332694;19;161773;-18
2022/05/13 03:09:57;;;;;;;1.58;1.05;;;;;;;;;;7331368;19;162495;-17
2022/05/13 03:12:29;;;;;;;1.30;1.20;;;;;;;;;;7330651;19;154211;-22
2022/05/13 03:15:00;;;;;;;2.25;1.60;;;;;;;;;;7332680;19;153715;-17
2022/05/13 03:17:31;;;;;;;1.92;0.90;;;;;;;;;;7332193;19;161908;-18
2022/05/13 03:20:03;;;;;;;1.48;1.38;;;;;;;;;;7330857;19;162655;-18
2022/05/13 03:22:35;;;;;;;1.67;1.00;;;;;;;;;;7333080;19;154137;-18
2022/05/13 03:25:10;;;;;;;1.25;1.10;;;;;;;;;;7332433;19;153522;-19
2022/05/13 03:27:41;;;;;;;1.35;1.25;;;;;;;;;;7331984;19;162031;-19
2022/05/13 03:30:16;;;;;;;1.00;1.00;;;;;;;;;;7331858;19;162710;-18
2022/05/13 03:32:48;;;;;;;0.82;0.82;;;;;;;;;;7331133;19;154007;-18
2022/05/13 03:35:19;;;;;;;0.98;0.90;;;;;;;;;;7332098;19;153639;-19
2022/05/13 03:37:51;;;;;;;1.30;1.20;;;;;;;;;;7331797;19;161776;-18
2022/05/13 03:40:24;;;;;;;1.02;0.90;;;;;;;;;;7331421;19;162533;-18
2022/05/13 03:42:56;;;;;;;1.35;1.02;;;;;;;;;;7331932;19;154406;-20
2022/05/13 03:45:29;;;;;;;1.05;0.95;;;;;;;;;;7329499;19;153538;-20
2022/05/13 03:48:01;;;;;;;0.88;0.88;;;;;;;;;;7331338;19;161812;-20
2022/05/13 03:50:32;;;;;;;1.08;0.98;;;;;;;;;;7330030;19;162655;-19
2022/05/13 03:53:04;;;;;;;1.55;1.13;;;;;;;;;;7331384;19;154179;-20
2022/05/13 03:55:38;;;;;;;1.10;1.00;;;;;;;;;;7331273;19;153652;-17
2022/05/13 03:58:10;;;;;;;1.30;0.90;;;;;;;;;;7331087;19;161935;-17
2022/05/13 04:00:42;;;;;;;2.83;1.10;;;;;;;;;;7330963;19;162471;-17
2022/05/13 04:03:13;;;;;;;1.65;0.98;;;;;;;;;;7331311;19;154418;-20
2022/05/13 04:11:14;;;;;;;1.45;0.95;;;;;;;;;;7335005;19;162557;-18
2022/05/13 04:16:30;;;;;;;1.27;1.08;;;;;;;;;;7330728;19;153589;-18
2022/05/13 04:19:01;;;;;;;0.98;0.98;;;;;;;;;;7330612;19;162074;-18
2022/05/13 04:21:35;;;;;;;1.17;1.08;;;;;;;;;;7330527;19;162675;-17
2022/05/13 04:24:08;;;;;;;1.23;1.00;;;;;;;;;;7328390;19;154178;-18
2022/05/13 04:26:42;;;;;;;1.02;0.88;;;;;;;;;;7330684;19;153628;-17
2022/05/13 04:29:14;;;;;;;1.95;0.90;;;;;;;;;;7329120;19;161933;-17
2022/05/13 04:31:46;;;;;;;0.93;0.93;;;;;;;;;;7330286;19;162767;-19
2022/05/13 04:34:18;;;;;;;1.13;1.00;;;;;;;;;;7328311;19;154288;-18
2022/05/13 04:36:49;;;;;;;1.20;1.10;;;;;;;;;;7330357;19;153522;-18
2022/05/13 04:39:20;;;;;;;1.08;0.98;;;;;;;;;;7329938;19;162065;-18
2022/05/13 04:44:40;;;;;;;1.15;1.05;;;;;;;;;;7328745;19;154180;-18
2022/05/13 04:49:55;;;;;;;0.85;0.85;;;;;;;;;;7329750;19;162119;-18
2022/05/13 04:52:27;;;;;;;0.80;0.80;;;;;;;;;;7329109;19;162148;-18
2022/05/13 04:54:58;;;;;;;1.20;1.10;;;;;;;;;;7327697;19;154155;-19
2022/05/13 04:57:32;;;;;;;2.13;0.77;;;;;;;;;;7329962;19;153486;-18
2022/05/13 05:00:05;;;;;;;1.38;0.90;;;;;;;;;;7329474;19;162004;-18
2022/05/13 05:02:37;;;;;;;2.10;1.03;;;;;;;;;;7332112;19;162530;-19
2022/05/13 05:05:09;;;;;;;1.55;0.93;;;;;;;;;;7331741;19;154089;-18
2022/05/13 05:07:40;;;;;;;0.80;0.80;;;;;;;;;;7331889;19;153627;-18
2022/05/13 05:10:13;;;;;;;0.93;0.85;;;;;;;;;;7332103;19;162139;-18
2022/05/13 05:12:48;;;;;;;0.98;0.90;;;;;;;;;;7331902;19;162350;-17
2022/05/13 05:15:20;;;;;;;1.63;0.98;;;;;;;;;;7329984;19;154433;-17
2022/05/13 05:17:51;;;;;;;0.80;0.80;;;;;;;;;;7327797;19;153564;-18
2022/05/13 05:20:23;;;;;;;0.88;0.88;;;;;;;;;;7328277;19;162032;-17
2022/05/13 05:22:54;;;;;;;0.80;0.80;;;;;;;;;;7328500;19;162345;-18
2022/05/13 05:25:28;;;;;;;1.60;0.90;;;;;;;;;;7328941;19;154224;-18
2022/05/13 05:28:02;;;;;;;0.70;0.70;;;;;;;;;;7327398;19;153621;-18
2022/05/13 05:30:33;;;;;;;1.38;0.77;;;;;;;;;;7327047;19;161903;-18
2022/05/13 05:33:05;;;;;;;0.90;0.90;;;;;;;;;;7328079;19;162662;-18
2022/05/13 05:35:36;;;;;;;1.27;1.15;;;;;;;;;;7332171;19;154257;-18
2022/05/13 05:38:08;;;;;;;3.50;1.10;;;;;;;;;;7333755;19;153605;-18
2022/05/13 05:40:40;;;;;;;2.27;1.00;;;;;;;;;;7334825;19;162288;-18
2022/05/13 05:43:17;;;;;;;5.53;1.02;;;;;;;;;;7334067;19;162378;-18
2022/05/13 05:45:48;;;;;;;2.35;1.20;;;;;;;;;;7331541;19;154117;-18
2022/05/13 05:48:22;;;;;;;2.33;0.98;;;;;;;;;;7334877;19;153638;-17
2022/05/13 05:50:55;;;;;;;3.60;1.58;;;;;;;;;;7333268;19;161826;-17
2022/05/13 05:59:00;;;;;;;1.48;0.85;;;;;;;;;;7332525;19;153535;-18
2022/05/13 06:01:32;;;;;;;2.22;1.05;;;;;;;;;;7333734;19;161813;-18
2022/05/13 06:04:05;;;;;;;3.08;1.00;;;;;;;;;;7333430;19;162400;-19
2022/05/13 06:06:36;;;;;;;2.38;1.30;;;;;;;;;;7334310;19;154076;-18
2022/05/13 06:09:08;;;;;;;2.75;1.15;;;;;;;;;;7333522;19;153473;-19
2022/05/13 06:11:39;;;;;;;3.20;1.20;;;;;;;;;;7333889;19;162200;-18
2022/05/13 06:14:13;;;;;;;6.68;2.05;;;;;;;;;;7333325;19;162395;-19
2022/05/13 06:16:46;;;;;;;2.22;1.33;;;;;;;;;;7336752;19;154162;-19
2022/05/13 06:19:17;;;;;;;;;;;;;;;;;;7333536;19;153606;-18
2022/05/13 06:21:48;;;;;;;4.72;1.30;;;;;;;;;;7332871;19;161908;-18
2022/05/13 06:24:20;;;;;;;6.53;1.92;;;;;;;;;;7332464;19;162419;-19
2022/05/13 06:26:52;;;;;;;5.60;1.35;;;;;;;;;;7334005;19;154086;-18
2022/05/13 06:29:28;;;;;;;4.07;1.27;;;;;;;;;;7333827;19;153564;-18
2022/05/13 06:31:59;;;;;;;3.25;1.17;;;;;;;;;;7333314;19;161923;-18
2022/05/13 06:34:31;;;;;;;2.97;1.63;;;;;;;;;;7332344;19;162649;-18
2022/05/13 06:37:02;;;;;;;3.72;1.25;;;;;;;;;;7333516;19;154246;-18
2022/05/13 06:39:33;;;;;;;3.90;1.17;;;;;;;;;;7333427;19;153549;-18
2022/05/13 06:42:05;;;;;;;3.83;1.60;;;;;;;;;;7333142;19;161796;-18
2022/05/13 06:44:47;;;;;;;1.73;1.00;;;;;;;;;;7332047;19;162541;-18
2022/05/13 06:47:19;;;;;;;4.32;1.35;;;;;;;;;;7331907;19;153873;-18
2022/05/13 06:49:50;;;;;;;5.63;1.25;;;;;;;;;;7333077;19;153739;-18
2022/05/13 06:52:22;;;;;;;1.65;1.17;;;;;;;;;;7332633;19;161820;-18
2022/05/13 06:55:11;;;;;;;2.55;1.25;;;;;;;;;;7330329;19;162758;-18
2022/05/13 06:57:42;;;;;;;5.45;1.63;;;;;;;;;;7333004;19;154182;-29
2022/05/13 07:00:17;;;;;;;4.45;1.42;;;;;;;;;;7332674;19;153788;-18
2022/05/13 07:02:48;;;;;;;4.50;1.05;;;;;;;;;;7332403;19;162048;-19
2022/05/13 07:05:20;;;;;;;3.90;1.30;;;;;;;;;;7330719;19;162425;-18
2022/05/13 07:07:52;;;;;;;4.75;1.60;;;;;;;;;;7332612;19;154119;-19
2022/05/13 07:10:23;;;;;;;5.72;1.50;;;;;;;;;;7332331;19;153575;-18
2022/05/13 07:12:55;;;;;;;7.55;1.85;;;;;;;;;;7332037;19;162069;-18
2022/05/13 07:15:29;;;;;;;2.38;1.30;;;;;;;;;;7329452;19;162407;-18
2022/05/13 07:18:00;;;;;;;2.88;1.33;;;;;;;;;;7332456;19;154123;-18
2022/05/13 07:20:32;;;;;;;1.85;1.48;;;;;;;;;;7332212;19;153525;-18
2022/05/13 07:23:03;;;;;;;3.65;1.65;;;;;;;;;;7331738;19;162180;-19
2022/05/13 07:25:35;;;;;;;3.40;1.65;;;;;;;;;;7330600;19;162462;-18
2022/05/13 07:28:07;;;;;;;3.75;1.70;;;;;;;;;;7332284;19;154169;-18
2022/05/13 07:30:41;;;;;;;5.17;1.53;;;;;;;;;;7331869;19;153500;-18
2022/05/13 07:33:13;;;;;;;4.70;1.55;;;;;;;;;;7331896;19;162258;-19
2022/05/13 07:35:44;;;;;;;1.93;1.33;;;;;;;;;;7328911;19;162486;-19
2022/05/13 07:38:16;;;;;;;4.75;1.50;;;;;;;;;;7332179;19;154071;-18
2022/05/13 07:43:31;;;;;;;6.28;1.45;;;;;;;;;;7330935;19;161847;-18
2022/05/13 07:46:06;;;;;;;6.65;1.52;;;;;;;;;;7327034;19;162356;-18
2022/05/13 07:48:37;;;;;;;2.97;1.55;;;;;;;;;;7331547;19;154098;-19
2022/05/13 07:51:09;;;;;;;3.40;1.25;;;;;;;;;;7331331;19;153815;-18
2022/05/13 07:53:41;;;;;;;1.83;1.20;;;;;;;;;;7331094;19;161895;-18
2022/05/13 07:56:13;;;;;;;3.85;1.50;;;;;;;;;;7329330;19;162406;-19
2022/05/13 07:58:44;;;;;;;3.97;1.40;;;;;;;;;;7331004;19;154303;-18
2022/05/13 08:01:18;;;;;;;3.88;1.40;;;;;;;;;;7331235;19;153531;-19
2022/05/13 08:03:49;;;;;;;2.58;1.30;;;;;;;;;;7330921;19;161947;-19
2022/05/13 08:06:21;;;;;;;2.30;1.30;;;;;;;;;;7329473;19;162448;-18
2022/05/13 08:08:55;;;;;;;4.38;1.90;;;;;;;;;;7335156;19;154045;-18
2022/05/13 08:11:29;;;;;;;2.53;1.10;;;;;;;;;;7331306;19;153587;-18
2022/05/13 08:14:01;;;;;;;1.65;1.10;;;;;;;;;;7330523;19;161801;-19
2022/05/13 08:16:35;;;;;;;3.10;1.13;;;;;;;;;;7328814;19;162696;-18
2022/05/13 08:19:07;;;;;;;3.03;1.23;;;;;;;;;;7331302;19;154227;-18
2022/05/13 08:21:39;;;;;;;3.75;1.33;;;;;;;;;;7330490;19;153807;-18
2022/05/13 08:24:10;;;;;;;4.03;1.50;;;;;;;;;;7334207;19;161996;-19
2022/05/13 08:26:41;;;;;;;2.83;1.20;;;;;;;;;;7330268;19;162421;-18
2022/05/13 08:29:13;;;;;;;3.40;1.30;;;;;;;;;;7330830;19;154520;-18
2022/05/13 08:31:47;;;;;;;5.63;1.50;;;;;;;;;;7330793;19;153645;-18
2022/05/13 08:34:19;;;;;;;3.10;1.20;;;;;;;;;;7330418;19;162066;-18
2022/05/13 08:36:50;;;;;;;1.98;1.08;;;;;;;;;;7328416;19;162563;-18
2022/05/13 08:39:22;;;;;;;2.40;1.05;;;;;;;;;;7329406;19;154573;-18
2022/05/13 08:42:10;;;;;;;2.70;1.00;;;;;;;;;;7330363;19;153518;-18
2022/05/13 08:44:43;;;;;;;3.35;1.50;;;;;;;;;;7328826;19;162146;-19
2022/05/13 08:47:23;;;;;;;6.13;1.45;;;;;;;;;;7329719;19;162469;-18
2022/05/13 08:49:57;;;;;;;3.15;1.40;;;;;;;;;;7330345;19;154177;-19
2022/05/13 08:55:24;;;;;;;2.55;1.13;;;;;;;;;;7329473;19;161811;-23
2022/05/13 08:57:58;;;;;;;1.30;0.90;;;;;;;;;;7329681;19;162473;-18
2022/05/13 09:00:35;;;;;;;2.10;1.20;;;;;;;;;;7330456;19;154019;-18
2022/05/13 09:03:17;;;;;;;1.45;1.00;;;;;;;;;;7330868;19;153952;-18
2022/05/13 09:05:52;;;;;;;2.73;1.17;;;;;;;;;;7329340;19;161771;-18
2022/05/13 09:08:24;;;;;;;2.55;1.05;;;;;;;;;;7326569;19;162977;-18
2022/05/13 09:11:16;;;;;;;3.28;1.25;;;;;;;;;;7329618;19;154065;-18
2022/05/13 09:13:59;;;;;;;4.32;1.20;;;;;;;;;;7329334;19;153598;-20
2022/05/13 09:16:53;;;;;;;1.95;1.10;;;;;;;;;;7326936;19;161848;-20
2022/05/13 09:19:36;;;;;;;1.98;1.17;;;;;;;;;;7330515;19;162414;-19
2022/05/13 09:22:10;;;;;;;4.25;1.30;;;;;;;;;;7333592;19;154185;-17
2022/05/13 09:24:42;;;;;;;5.80;1.17;;;;;;;;;;7329038;19;153783;-19
2022/05/13 09:27:27;;;;;;;2.10;0.90;;;;;;;;;;7328625;19;161762;-19
2022/05/13 09:29:59;;;;;;;1.42;0.95;;;;;;;;;;7326960;19;162371;-20
2022/05/13 09:32:32;;;;;;;1.00;0.93;;;;;;;;;;7332807;19;154291;-20
2022/05/13 09:35:16;;;;;;;1.60;1.15;;;;;;;;;;7328104;19;154456;-20
2022/05/13 09:37:48;;;;;;;1.83;1.38;;;;;;;;;;7328834;19;161982;-18
2022/05/13 09:40:26;;;;;;;2.97;1.10;;;;;;;;;;7331858;19;162635;-17
2022/05/13 09:42:59;;;;;;;2.53;1.17;;;;;;;;;;7329790;19;154115;-19
2022/05/13 09:45:33;;;;;;;2.50;0.93;;;;;;;;;;7327257;19;153613;-18
2022/05/13 09:48:14;;;;;;;0.85;0.73;;;;;;;;;;7331124;19;162117;-18
2022/05/13 09:50:52;;;;;;;2.28;1.13;;;;;;;;;;7328820;19;162269;-18
2022/05/13 09:53:38;;;;;;;1.58;1.08;;;;;;;;;;7330360;19;154076;-18
2022/05/13 09:56:16;;;;;;;2.00;0.95;;;;;;;;;;7331001;19;153623;-18
2022/05/13 09:58:56;;;;;;;1.90;0.98;;;;;;;;;;7327260;19;161821;-18
2022/05/13 10:01:30;;;;;;;2.10;1.10;;;;;;;;;;7327912;19;163054;-18
2022/05/13 10:04:08;;;;;;;1.25;0.90;;;;;;;;;;7330163;19;154205;-18
2022/05/13 10:06:44;;;;;;;2.97;1.25;;;;;;;;;;7331688;19;153679;-18
2022/05/13 10:15:10;;;;;;;1.38;0.93;;;;;;;;;;7328903;19;154068;-18
2022/05/13 10:17:49;;;;;;;2.15;1.10;;;;;;;;;;7328699;19;153630;-19
2022/05/13 10:20:31;;;;;;;3.75;1.25;;;;;;;;;;7329653;19;161922;-19
2022/05/13 10:23:18;;;;;;;2.08;1.05;;;;;;;;;;7334586;19;162467;-18
2022/05/13 10:25:58;;;;;;;1.48;0.90;;;;;;;;;;7334969;19;154339;-19
2022/05/13 10:28:38;;;;;;;2.30;1.00;;;;;;;;;;7334177;19;153533;-18
2022/05/13 10:31:13;;;;;;;2.97;1.08;;;;;;;;;;7335389;19;161846;-18
2022/05/13 10:33:57;;;;;;;3.55;1.02;;;;;;;;;;7336347;19;162370;-18
2022/05/13 10:36:33;;;;;;;3.45;0.95;;;;;;;;;;7332571;19;153758;-18
2022/05/13 10:39:28;;;;;;;2.45;1.08;;;;;;;;;;7335365;19;153640;-19
2022/05/13 10:42:02;;;;;;;3.83;1.20;;;;;;;;;;7336444;19;162204;-20
2022/05/13 10:44:43;;;;;;;3.65;1.13;;;;;;;;;;7332778;19;162473;-19
2022/05/13 10:47:20;;;;;;;2.35;1.15;;;;;;;;;;7335096;19;154236;-19
2022/05/13 10:49:52;;;;;;;3.58;1.15;;;;;;;;;;7336617;19;153771;-20
2022/05/13 10:52:41;;;;;;;0.80;0.80;;;;;;;;;;7337468;19;161807;-20
2022/05/13 10:55:20;;;;;;;2.85;0.82;;;;;;;;;;7334733;19;162578;-17
2022/05/13 10:58:05;;;;;;;2.47;1.00;;;;;;;;;;7331576;19;154596;-18
2022/05/13 11:00:43;;;;;;;1.45;0.60;;;;;;;;;;7336205;19;153817;-17
2022/05/13 11:03:30;;;;;;;3.30;1.35;;;;;;;;;;7334463;19;161836;-18
2022/05/13 11:06:19;;;;;;;1.05;0.90;;;;;;;;;;7334760;19;162404;-18
2022/05/13 11:08:58;;;;;;;2.08;0.73;;;;;;;;;;7333884;19;154203;-18
2022/05/13 11:11:44;;;;;;;3.13;0.90;;;;;;;;;;7335254;19;153659;-18
2022/05/13 11:14:32;;;;;;;2.40;1.08;;;;;;;;;;7335692;19;161862;-19
2022/05/13 11:17:14;;;;;;;2.55;1.20;;;;;;;;;;7333385;19;162381;-18
2022/05/13 11:19:54;;;;;;;1.23;1.00;;;;;;;;;;7335513;19;154212;-19
2022/05/13 11:22:38;;;;;;;2.28;0.90;;;;;;;;;;7332582;19;153319;-18
2022/05/13 11:28:35;;;;;;;1.33;1.05;;;;;;;;;;7334637;19;162352;-18
2022/05/13 11:31:16;;;;;;;5.63;1.10;;;;;;;;;;7334696;19;155094;-18
2022/05/13 11:33:54;;;;;;;1.42;0.80;;;;;;;;;;7333537;19;154117;-18
2022/05/13 11:36:41;;;;;;;1.58;1.02;;;;;;;;;;7331222;19;162033;-19
2022/05/13 11:39:34;;;;;;;1.05;0.80;;;;;;;;;;7331089;19;162676;-23
2022/05/13 11:42:21;;;;;;;2.50;0.90;;;;;;;;;;7334936;19;154055;-24
2022/05/13 11:45:11;;;;;;;4.32;1.23;;;;;;;;;;7331511;19;153811;-19
2022/05/13 11:47:56;;;;;;;2.75;1.10;;;;;;;;;;7334402;19;162057;-24
2022/05/13 11:50:29;;;;;;;1.45;0.93;;;;;;;;;;7331678;19;162506;-19
2022/05/13 11:53:02;;;;;;;1.88;0.93;;;;;;;;;;7332509;19;153893;-19
2022/05/13 11:55:48;;;;;;;;;;;;;;;;;;7333742;19;153495;-19
2022/05/13 11:58:47;;;;;;;3.63;0.90;;;;;;;;;;7331346;19;161896;-20
2022/05/13 12:01:48;;;;;;;1.83;1.08;;;;;;;;;;7334619;19;162373;-19
2022/05/13 12:04:34;;;;;;;2.47;0.90;;;;;;;;;;7334224;19;154221;-19
2022/05/13 12:07:28;;;;;;;1.27;0.80;;;;;;;;;;7332936;19;153886;-18
2022/05/13 12:10:02;;;;;;;3.67;1.02;;;;;;;;;;7332792;19;161846;-18
2022/05/13 12:12:57;;;;;;;1.05;0.88;;;;;;;;;;7331242;19;162038;-19
2022/05/13 12:15:49;;;;;;;1.67;0.80;;;;;;;;;;7333407;19;154077;-19
2022/05/13 12:18:33;;;;;;;1.77;0.93;;;;;;;;;;7330186;19;153942;-19
2022/05/13 12:21:16;;;;;;;1.73;1.13;;;;;;;;;;7331946;19;161783;-19
2022/05/13 12:23:56;;;;;;;2.25;1.13;;;;;;;;;;7334048;19;162390;-19
2022/05/13 12:27:07;;;;;;;1.17;0.98;;;;;;;;;;7332466;19;154267;-19
2022/05/13 12:30:01;;;;;;;0.95;0.70;;;;;;;;;;7333424;19;153518;-19
2022/05/13 12:32:51;;;;;;;1.42;0.80;;;;;;;;;;7330323;19;161902;-20
2022/05/13 12:38:20;;;;;;;0.80;0.68;;;;;;;;;;7334154;19;154113;-20
2022/05/13 12:41:06;;;;;;;1.80;0.70;;;;;;;;;;7331327;19;153539;-20
2022/05/13 12:43:56;;;;;;;1.40;0.90;;;;;;;;;;7330471;19;161934;-19
2022/05/13 12:46:46;;;;;;;6.20;1.20;;;;;;;;;;7329822;19;162356;-19
2022/05/13 12:49:22;;;;;;;1.23;0.90;;;;;;;;;;7331996;19;154347;-19
2022/05/13 12:52:03;;;;;;;3.28;0.90;;;;;;;;;;7333636;19;153525;-19
2022/05/13 12:54:45;;;;;;;1.98;0.90;;;;;;;;;;7329380;19;162200;-20
2022/05/13 12:57:23;;;;;;;1.42;1.10;;;;;;;;;;7332195;19;162537;-19
2022/05/13 13:00:14;;;;;;;1.63;1.00;;;;;;;;;;7330296;19;154348;-19
2022/05/13 13:02:50;;;;;;;1.40;0.95;;;;;;;;;;7330092;19;153537;-19
2022/05/13 13:05:25;;;;;;;1.35;0.88;;;;;;;;;;7331924;19;161818;-19
2022/05/13 13:07:57;;;;;;;2.67;1.52;;;;;;;;;;7332599;19;162563;-19
2022/05/13 13:10:31;;;;;;;0.97;0.90;;;;;;;;;;7330368;19;154102;-19
2022/05/13 13:13:13;;;;;;;1.27;0.80;;;;;;;;;;7331194;19;153549;-19
2022/05/13 13:15:59;;;;;;;1.90;0.90;;;;;;;;;;7331263;19;162011;-19
2022/05/13 13:18:32;;;;;;;2.97;1.10;;;;;;;;;;7329769;19;162465;-19
2022/05/13 13:21:10;;;;;;;2.83;1.13;;;;;;;;;;7331723;19;154501;-19
2022/05/13 13:23:43;;;;;;;5.20;1.38;;;;;;;;;;7332249;19;153565;-19
2022/05/13 13:26:17;;;;;;;1.75;1.05;;;;;;;;;;7332818;19;161601;-19
2022/05/13 13:28:55;;;;;;;3.30;1.38;;;;;;;;;;7330185;19;162383;-19
2022/05/13 13:31:28;;;;;;;4.00;1.10;;;;;;;;;;7331074;19;154149;-19
2022/05/13 13:34:04;;;;;;;4.13;1.30;;;;;;;;;;7331215;19;153544;-18
2022/05/13 13:36:36;;;;;;;7.47;1.63;;;;;;;;;;7329514;19;161893;-18
2022/05/13 13:39:22;;;;;;;4.65;1.42;;;;;;;;;;7329761;19;162389;-20
2022/05/13 13:42:05;;;;;;;7.55;1.85;;;;;;;;;;7333119;19;154087;-19
2022/05/13 13:44:37;;;;;;;2.13;0.80;;;;;;;;;;7327995;19;153515;-19
2022/05/13 13:47:14;;;;;;;2.67;1.10;;;;;;;;;;7328172;19;162183;-18
2022/05/13 13:49:51;;;;;;;3.38;1.25;;;;;;;;;;7328588;19;163942;-19
2022/05/13 13:52:25;;;;;;;3.20;1.48;;;;;;;;;;7328142;19;154132;-19
2022/05/13 13:55:01;;;;;;;2.67;1.20;;;;;;;;;;7334086;19;153498;-18
2022/05/13 13:57:49;;;;;;;5.75;1.83;;;;;;;;;;7334816;19;161835;-19
2022/05/13 14:00:24;;;;;;;4.60;1.45;;;;;;;;;;7333307;19;162532;-19
2022/05/13 14:03:03;;;;;;;4.35;1.25;;;;;;;;;;7335217;19;154470;-19
2022/05/13 14:05:37;;;;;;;3.95;1.48;;;;;;;;;;7335169;19;153539;-19
2022/05/13 14:08:10;;;;;;;3.40;1.60;;;;;;;;;;7334244;19;161874;-18
2022/05/13 14:10:47;;;;;;;2.70;1.20;;;;;;;;;;7334142;19;162361;-19
2022/05/13 14:13:24;;;;;;;3.75;1.30;;;;;;;;;;7334364;19;154163;-18
2022/05/13 14:16:06;;;;;;;6.13;1.70;;;;;;;;;;7334026;19;153526;-18
2022/05/13 14:18:38;;;;;;;2.88;1.20;;;;;;;;;;7334021;19;161775;-18
2022/05/13 14:21:14;;;;;;;1.63;1.23;;;;;;;;;;7331605;19;162629;-18
2022/05/13 14:23:45;;;;;;;2.10;1.17;;;;;;;;;;7333956;19;154220;-20
2022/05/13 14:26:17;;;;;;;2.33;1.05;;;;;;;;;;7335947;19;153692;-19
2022/05/13 14:28:53;;;;;;;3.33;1.20;;;;;;;;;;7333533;19;162175;-19
2022/05/13 14:31:35;;;;;;;2.60;1.33;;;;;;;;;;7333680;19;162456;-19
2022/05/13 14:34:15;;;;;;;5.68;1.20;;;;;;;;;;7333613;19;154078;-19
2022/05/13 14:36:49;;;;;;;3.22;1.35;;;;;;;;;;7333967;19;153596;-23
2022/05/13 14:42:15;;;;;;;2.90;0.90;;;;;;;;;;7333304;19;162381;-19
2022/05/13 14:44:51;;;;;;;2.55;1.23;;;;;;;;;;7331226;19;154111;-20
2022/05/13 14:47:36;;;;;;;2.22;1.30;;;;;;;;;;7333437;19;153527;-19
2022/05/13 14:50:21;;;;;;;2.45;1.20;;;;;;;;;;7332708;19;162112;-18
2022/05/13 14:52:55;;;;;;;2.92;1.30;;;;;;;;;;7332641;19;162391;-18
2022/05/13 14:55:31;;;;;;;3.72;1.85;;;;;;;;;;7333019;19;154168;-19
2022/05/13 14:58:05;;;;;;;1.95;1.20;;;;;;;;;;7332957;19;153792;-20
2022/05/13 15:00:47;;;;;;;1.50;1.23;;;;;;;;;;7331305;19;161795;-18
2022/05/13 15:03:24;;;;;;;3.25;1.42;;;;;;;;;;7332713;19;162547;-18
2022/05/13 15:05:57;;;;;;;2.65;1.52;;;;;;;;;;7332661;19;154149;-18
2022/05/13 15:08:48;;;;;;;3.72;1.33;;;;;;;;;;7331605;19;153974;-18
2022/05/13 15:11:21;;;;;;;2.03;1.40;;;;;;;;;;7332336;19;162011;-18
2022/05/13 15:13:56;;;;;;;1.77;1.30;;;;;;;;;;7332122;19;162417;-18
2022/05/13 15:16:31;;;;;;;;;;;;;;;;;;7333330;19;154092;-18
2022/05/13 15:19:03;;;;;;;2.33;1.23;;;;;;;;;;7332633;19;153454;-18
2022/05/13 15:21:34;;;;;;;3.20;1.33;;;;;;;;;;7329020;19;161784;-19
2022/05/13 15:24:06;;;;;;;6.13;1.65;;;;;;;;;;7331993;19;163288;-19
2022/05/13 15:26:38;;;;;;;2.20;1.73;;;;;;;;;;7330871;19;154075;-19
2022/05/13 15:29:09;;;;;;;4.53;1.40;;;;;;;;;;7332153;19;153473;-18
2022/05/13 15:31:43;;;;;;;2.22;1.20;;;;;;;;;;7330747;19;161864;-17
2022/05/13 15:34:15;;;;;;;4.85;1.50;;;;;;;;;;7331793;19;162522;-19
2022/05/13 15:36:46;;;;;;;4.43;1.73;;;;;;;;;;7332244;19;154100;-18
2022/05/13 15:39:17;;;;;;;2.28;1.20;;;;;;;;;;7330652;19;153331;-19
2022/05/13 15:41:53;;;;;;;5.18;1.55;;;;;;;;;;7329523;19;162114;-18
2022/05/13 15:44:28;;;;;;;2.58;1.25;;;;;;;;;;7329485;19;132691;-19
2022/05/13 15:47:02;;;;;;;3.40;1.50;;;;;;;;;;7331828;19;154108;-19
2022/05/13 15:55:11;;;;;;;1.42;1.30;;;;;;;;;;7331291;19;162292;-18
2022/05/13 15:57:46;;;;;;;3.92;1.40;;;;;;;;;;7332162;19;154402;-18
2022/05/13 16:00:21;;;;;;;7.30;1.40;;;;;;;;;;7331130;19;153564;-19
2022/05/13 16:02:58;;;;;;;9.70;1.95;;;;;;;;;;7330868;19;161899;-18
2022/05/13 16:05:33;;;;;;;1.38;1.20;;;;;;;;;;7329608;19;162446;-18